sensor_id;sensor_type;location;lat;lon;timestamp;temperature;humidity
21678;DHT22;11000;50.360;7.582;2023-05-15T00:01:17;13.80;99.90
21678;DHT22;11000;50.360;7.582;2023-05-15T00:03:38;13.80;99.90
21678;DHT22;11000;50.360;7.582;2023-05-15T00:05:58;13.80;99.90
21678;DHT22;11000;50.360;7.582;2023-05-15T00:08:19;13.80;99.90
21678;DHT22;11000;50.360;7.582;2023-05-15T00:10:39;13.80;99.90
21678;DHT22;11000;50.360;7.582;2023-05-15T00:13:00;13.80;99.90
21678;DHT22;11000;50.360;7.582;2023-05-15T00:15:20;13.70;99.90
21678;DHT22;11000;50.360;7.582;2023-05-15T00:17:41;13.70;99.90
21678;DHT22;11000;50.360;7.582;2023-05-15T00:20:01;13.70;99.90
21678;DHT22;11000;50.360;7.582;2023-05-15T00:22:24;13.60;99.90
21678;DHT22;11000;50.360;7.582;2023-05-15T00:24:45;13.60;99.90
21678;DHT22;11000;50.360;7.582;2023-05-15T00:27:05;13.50;99.90
21678;DHT22;11000;50.360;7.582;2023-05-15T00:29:26;13.50;99.90
21678;DHT22;11000;50.360;7.582;2023-05-15T00:31:46;13.50;99.90
21678;DHT22;11000;50.360;7.582;2023-05-15T00:34:07;13.50;99.90
21678;DHT22;11000;50.360;7.582;2023-05-15T00:36:27;13.50;99.90
21678;DHT22;11000;50.360;7.582;2023-05-15T00:38:48;13.40;99.90
21678;DHT22;11000;50.360;7.582;2023-05-15T00:41:09;13.40;99.90
21678;DHT22;11000;50.360;7.582;2023-05-15T00:43:30;13.30;99.90
21678;DHT22;11000;50.360;7.582;2023-05-15T00:45:52;13.30;99.90
21678;DHT22;11000;50.360;7.582;2023-05-15T00:48:13;13.30;99.90
21678;DHT22;11000;50.360;7.582;2023-05-15T00:50:36;13.20;99.90
21678;DHT22;11000;50.360;7.582;2023-05-15T00:52:58;13.20;99.90
21678;DHT22;11000;50.360;7.582;2023-05-15T00:55:19;13.20;99.90
21678;DHT22;11000;50.360;7.582;2023-05-15T00:57:42;13.10;99.90
21678;DHT22;11000;50.360;7.582;2023-05-15T01:00:03;13.10;99.90
21678;DHT22;11000;50.360;7.582;2023-05-15T01:02:29;13.10;99.90
21678;DHT22;11000;50.360;7.582;2023-05-15T01:04:50;13.00;99.90
21678;DHT22;11000;50.360;7.582;2023-05-15T01:07:11;13.00;99.90
21678;DHT22;11000;50.360;7.582;2023-05-15T01:09:32;13.00;99.90
21678;DHT22;11000;50.360;7.582;2023-05-15T01:11:54;13.00;99.90
21678;DHT22;11000;50.360;7.582;2023-05-15T01:14:16;12.90;99.90
21678;DHT22;11000;50.360;7.582;2023-05-15T01:16:37;12.90;99.90
21678;DHT22;11000;50.360;7.582;2023-05-15T01:18:58;12.80;99.90
21678;DHT22;11000;50.360;7.582;2023-05-15T01:29:46;12.50;99.90
21678;DHT22;11000;50.360;7.582;2023-05-15T01:32:21;12.60;99.90
21678;DHT22;11000;50.360;7.582;2023-05-15T01:34:51;12.50;99.90
21678;DHT22;11000;50.360;7.582;2023-05-15T01:37:13;12.50;99.90
21678;DHT22;11000;50.360;7.582;2023-05-15T01:39:38;12.50;99.90
21678;DHT22;11000;50.360;7.582;2023-05-15T01:42:09;12.50;99.90
21678;DHT22;11000;50.360;7.582;2023-05-15T01:44:31;12.40;99.90
21678;DHT22;11000;50.360;7.582;2023-05-15T01:46:56;12.40;99.90
21678;DHT22;11000;50.360;7.582;2023-05-15T01:49:18;12.40;99.90
21678;DHT22;11000;50.360;7.582;2023-05-15T01:51:44;12.40;99.90
21678;DHT22;11000;50.360;7.582;2023-05-15T01:54:07;12.40;99.90
21678;DHT22;11000;50.360;7.582;2023-05-15T01:56:28;12.40;99.90
21678;DHT22;11000;50.360;7.582;2023-05-15T01:58:51;12.30;99.90
21678;DHT22;11000;50.360;7.582;2023-05-15T02:01:13;12.30;99.90
21678;DHT22;11000;50.360;7.582;2023-05-15T02:03:35;12.30;99.90
21678;DHT22;11000;50.360;7.582;2023-05-15T02:05:55;12.20;99.90
21678;DHT22;11000;50.360;7.582;2023-05-15T02:08:16;12.30;99.90
21678;DHT22;11000;50.360;7.582;2023-05-15T02:10:37;12.20;99.90
21678;DHT22;11000;50.360;7.582;2023-05-15T02:12:59;12.20;99.90
21678;DHT22;11000;50.360;7.582;2023-05-15T02:15:21;12.20;99.90
21678;DHT22;11000;50.360;7.582;2023-05-15T02:17:42;12.20;99.90
21678;DHT22;11000;50.360;7.582;2023-05-15T02:20:03;12.20;99.90
21678;DHT22;11000;50.360;7.582;2023-05-15T02:22:25;12.20;99.90
21678;DHT22;11000;50.360;7.582;2023-05-15T02:24:45;12.20;99.90
21678;DHT22;11000;50.360;7.582;2023-05-15T02:27:30;12.20;99.90
21678;DHT22;11000;50.360;7.582;2023-05-15T02:30:02;12.10;99.90
21678;DHT22;11000;50.360;7.582;2023-05-15T02:35:13;12.00;99.90
21678;DHT22;11000;50.360;7.582;2023-05-15T02:37:38;12.00;99.90
21678;DHT22;11000;50.360;7.582;2023-05-15T02:40:00;12.00;99.90
21678;DHT22;11000;50.360;7.582;2023-05-15T02:42:21;12.00;99.90
21678;DHT22;11000;50.360;7.582;2023-05-15T02:44:43;12.00;99.90
21678;DHT22;11000;50.360;7.582;2023-05-15T02:47:04;12.00;99.90
21678;DHT22;11000;50.360;7.582;2023-05-15T02:49:25;11.90;99.90
21678;DHT22;11000;50.360;7.582;2023-05-15T02:51:46;11.80;99.90
21678;DHT22;11000;50.360;7.582;2023-05-15T02:54:07;11.80;99.90
21678;DHT22;11000;50.360;7.582;2023-05-15T02:56:28;11.80;99.90
21678;DHT22;11000;50.360;7.582;2023-05-15T02:58:49;11.80;99.90
21678;DHT22;11000;50.360;7.582;2023-05-15T03:01:09;11.80;99.90
21678;DHT22;11000;50.360;7.582;2023-05-15T03:03:30;11.70;99.90
21678;DHT22;11000;50.360;7.582;2023-05-15T03:05:50;11.70;99.90
21678;DHT22;11000;50.360;7.582;2023-05-15T03:08:12;11.80;99.90
21678;DHT22;11000;50.360;7.582;2023-05-15T03:10:32;11.70;99.90
21678;DHT22;11000;50.360;7.582;2023-05-15T03:12:54;11.80;99.90
21678;DHT22;11000;50.360;7.582;2023-05-15T03:15:17;11.80;99.90
21678;DHT22;11000;50.360;7.582;2023-05-15T03:17:38;11.80;99.90
21678;DHT22;11000;50.360;7.582;2023-05-15T03:19:58;11.70;99.90
21678;DHT22;11000;50.360;7.582;2023-05-15T03:22:19;11.70;99.90
21678;DHT22;11000;50.360;7.582;2023-05-15T03:24:40;11.80;99.90
21678;DHT22;11000;50.360;7.582;2023-05-15T03:27:00;11.80;99.90
21678;DHT22;11000;50.360;7.582;2023-05-15T03:29:21;11.80;99.90
21678;DHT22;11000;50.360;7.582;2023-05-15T03:31:41;11.90;99.90
21678;DHT22;11000;50.360;7.582;2023-05-15T03:34:02;11.80;99.90
21678;DHT22;11000;50.360;7.582;2023-05-15T03:36:22;11.80;99.90
21678;DHT22;11000;50.360;7.582;2023-05-15T03:38:43;11.90;99.90
21678;DHT22;11000;50.360;7.582;2023-05-15T03:41:03;11.90;99.90
21678;DHT22;11000;50.360;7.582;2023-05-15T03:43:24;11.90;99.90
21678;DHT22;11000;50.360;7.582;2023-05-15T03:45:44;12.00;99.90
21678;DHT22;11000;50.360;7.582;2023-05-15T03:48:05;12.00;99.90
21678;DHT22;11000;50.360;7.582;2023-05-15T03:50:25;12.00;99.90
21678;DHT22;11000;50.360;7.582;2023-05-15T03:52:46;12.00;99.90
21678;DHT22;11000;50.360;7.582;2023-05-15T03:55:07;12.10;99.90
21678;DHT22;11000;50.360;7.582;2023-05-15T03:57:27;12.10;99.90
21678;DHT22;11000;50.360;7.582;2023-05-15T03:59:48;12.10;99.90
21678;DHT22;11000;50.360;7.582;2023-05-15T04:02:09;12.00;99.90
21678;DHT22;11000;50.360;7.582;2023-05-15T04:04:29;12.10;99.90
21678;DHT22;11000;50.360;7.582;2023-05-15T04:06:50;12.10;99.90
21678;DHT22;11000;50.360;7.582;2023-05-15T04:09:10;12.20;99.90
21678;DHT22;11000;50.360;7.582;2023-05-15T04:11:31;12.20;99.90
21678;DHT22;11000;50.360;7.582;2023-05-15T04:13:54;12.20;99.90
21678;DHT22;11000;50.360;7.582;2023-05-15T04:16:14;12.20;99.90
21678;DHT22;11000;50.360;7.582;2023-05-15T04:18:35;12.20;99.90
21678;DHT22;11000;50.360;7.582;2023-05-15T04:20:55;12.30;99.90
21678;DHT22;11000;50.360;7.582;2023-05-15T04:23:16;12.30;99.90
21678;DHT22;11000;50.360;7.582;2023-05-15T04:25:36;12.30;99.90
21678;DHT22;11000;50.360;7.582;2023-05-15T04:27:57;12.30;99.90
21678;DHT22;11000;50.360;7.582;2023-05-15T04:30:17;12.40;99.90
21678;DHT22;11000;50.360;7.582;2023-05-15T04:32:39;12.40;99.90
21678;DHT22;11000;50.360;7.582;2023-05-15T04:35:00;12.40;99.90
21678;DHT22;11000;50.360;7.582;2023-05-15T04:37:21;12.40;99.90
21678;DHT22;11000;50.360;7.582;2023-05-15T04:39:41;12.40;99.90
21678;DHT22;11000;50.360;7.582;2023-05-15T04:42:02;12.50;99.90
21678;DHT22;11000;50.360;7.582;2023-05-15T04:44:23;12.50;99.90
21678;DHT22;11000;50.360;7.582;2023-05-15T04:46:43;12.60;99.90
21678;DHT22;11000;50.360;7.582;2023-05-15T04:49:04;12.50;99.90
21678;DHT22;11000;50.360;7.582;2023-05-15T04:51:25;12.40;99.90
21678;DHT22;11000;50.360;7.582;2023-05-15T04:53:46;12.50;99.90
21678;DHT22;11000;50.360;7.582;2023-05-15T04:56:06;12.50;99.90
21678;DHT22;11000;50.360;7.582;2023-05-15T04:58:27;12.60;99.90
21678;DHT22;11000;50.360;7.582;2023-05-15T05:00:47;12.60;99.90
21678;DHT22;11000;50.360;7.582;2023-05-15T05:03:08;12.70;99.90
21678;DHT22;11000;50.360;7.582;2023-05-15T05:05:28;12.70;99.90
21678;DHT22;11000;50.360;7.582;2023-05-15T05:07:49;12.70;99.90
21678;DHT22;11000;50.360;7.582;2023-05-15T05:10:11;12.70;99.90
21678;DHT22;11000;50.360;7.582;2023-05-15T05:12:32;12.80;99.90
21678;DHT22;11000;50.360;7.582;2023-05-15T05:14:52;12.90;99.90
21678;DHT22;11000;50.360;7.582;2023-05-15T05:17:14;12.90;99.90
21678;DHT22;11000;50.360;7.582;2023-05-15T05:19:35;12.90;99.90
21678;DHT22;11000;50.360;7.582;2023-05-15T05:21:55;13.00;99.90
21678;DHT22;11000;50.360;7.582;2023-05-15T05:24:17;13.00;99.90
21678;DHT22;11000;50.360;7.582;2023-05-15T05:26:38;13.00;99.90
21678;DHT22;11000;50.360;7.582;2023-05-15T05:28:58;12.90;99.90
21678;DHT22;11000;50.360;7.582;2023-05-15T05:31:19;12.90;99.90
21678;DHT22;11000;50.360;7.582;2023-05-15T05:33:51;13.00;99.90
21678;DHT22;11000;50.360;7.582;2023-05-15T05:36:12;13.10;99.90
21678;DHT22;11000;50.360;7.582;2023-05-15T05:38:33;13.10;99.90
21678;DHT22;11000;50.360;7.582;2023-05-15T05:40:53;13.20;99.90
21678;DHT22;11000;50.360;7.582;2023-05-15T05:43:14;13.20;99.90
21678;DHT22;11000;50.360;7.582;2023-05-15T05:45:34;13.20;99.90
21678;DHT22;11000;50.360;7.582;2023-05-15T05:47:55;13.10;99.90
21678;DHT22;11000;50.360;7.582;2023-05-15T05:50:16;13.20;99.90
21678;DHT22;11000;50.360;7.582;2023-05-15T05:52:36;13.30;99.90
21678;DHT22;11000;50.360;7.582;2023-05-15T05:54:57;13.30;99.90
21678;DHT22;11000;50.360;7.582;2023-05-15T05:57:17;13.40;99.90
21678;DHT22;11000;50.360;7.582;2023-05-15T05:59:38;13.20;99.90
21678;DHT22;11000;50.360;7.582;2023-05-15T06:01:59;13.30;99.90
21678;DHT22;11000;50.360;7.582;2023-05-15T06:04:19;13.30;99.90
21678;DHT22;11000;50.360;7.582;2023-05-15T06:06:40;13.20;99.90
21678;DHT22;11000;50.360;7.582;2023-05-15T06:09:01;13.30;99.90
21678;DHT22;11000;50.360;7.582;2023-05-15T06:11:21;13.40;99.90
21678;DHT22;11000;50.360;7.582;2023-05-15T06:13:42;13.50;99.90
21678;DHT22;11000;50.360;7.582;2023-05-15T06:16:03;13.60;99.90
21678;DHT22;11000;50.360;7.582;2023-05-15T06:18:23;13.60;99.90
21678;DHT22;11000;50.360;7.582;2023-05-15T06:20:44;13.70;99.90
21678;DHT22;11000;50.360;7.582;2023-05-15T06:23:04;13.80;99.90
21678;DHT22;11000;50.360;7.582;2023-05-15T06:25:25;13.90;99.90
21678;DHT22;11000;50.360;7.582;2023-05-15T06:27:45;13.90;99.90
21678;DHT22;11000;50.360;7.582;2023-05-15T06:30:08;14.10;99.90
21678;DHT22;11000;50.360;7.582;2023-05-15T06:32:28;14.20;99.90
21678;DHT22;11000;50.360;7.582;2023-05-15T06:34:50;14.30;99.90
21678;DHT22;11000;50.360;7.582;2023-05-15T06:37:11;14.30;99.90
21678;DHT22;11000;50.360;7.582;2023-05-15T06:39:31;14.40;99.90
21678;DHT22;11000;50.360;7.582;2023-05-15T06:41:52;14.40;99.90
21678;DHT22;11000;50.360;7.582;2023-05-15T06:44:17;14.50;99.90
21678;DHT22;11000;50.360;7.582;2023-05-15T06:46:37;14.50;99.90
21678;DHT22;11000;50.360;7.582;2023-05-15T06:48:58;14.50;99.90
21678;DHT22;11000;50.360;7.582;2023-05-15T06:51:18;14.50;99.90
21678;DHT22;11000;50.360;7.582;2023-05-15T06:53:40;14.50;99.90
21678;DHT22;11000;50.360;7.582;2023-05-15T06:56:01;14.60;99.90
21678;DHT22;11000;50.360;7.582;2023-05-15T06:58:21;14.70;99.90
21678;DHT22;11000;50.360;7.582;2023-05-15T07:00:42;14.70;99.90
21678;DHT22;11000;50.360;7.582;2023-05-15T07:03:03;14.70;99.90
21678;DHT22;11000;50.360;7.582;2023-05-15T07:05:24;14.70;99.90
21678;DHT22;11000;50.360;7.582;2023-05-15T07:07:44;14.80;99.90
21678;DHT22;11000;50.360;7.582;2023-05-15T07:10:05;14.90;99.90
21678;DHT22;11000;50.360;7.582;2023-05-15T07:12:26;14.90;99.90
21678;DHT22;11000;50.360;7.582;2023-05-15T07:14:47;14.90;99.90
21678;DHT22;11000;50.360;7.582;2023-05-15T07:17:07;14.90;99.90
21678;DHT22;11000;50.360;7.582;2023-05-15T07:19:28;15.00;99.90
21678;DHT22;11000;50.360;7.582;2023-05-15T07:21:48;14.90;99.90
21678;DHT22;11000;50.360;7.582;2023-05-15T07:24:09;15.00;99.90
21678;DHT22;11000;50.360;7.582;2023-05-15T07:26:30;15.00;99.90
21678;DHT22;11000;50.360;7.582;2023-05-15T07:28:51;15.10;99.90
21678;DHT22;11000;50.360;7.582;2023-05-15T07:31:12;15.10;99.90
21678;DHT22;11000;50.360;7.582;2023-05-15T07:33:32;15.10;99.90
21678;DHT22;11000;50.360;7.582;2023-05-15T07:35:53;15.30;99.90
21678;DHT22;11000;50.360;7.582;2023-05-15T07:38:13;15.30;99.90
21678;DHT22;11000;50.360;7.582;2023-05-15T07:40:34;15.40;99.90
21678;DHT22;11000;50.360;7.582;2023-05-15T07:42:55;15.30;99.90
21678;DHT22;11000;50.360;7.582;2023-05-15T07:45:15;15.40;99.90
21678;DHT22;11000;50.360;7.582;2023-05-15T07:47:36;15.30;99.90
21678;DHT22;11000;50.360;7.582;2023-05-15T07:49:56;15.30;99.90
21678;DHT22;11000;50.360;7.582;2023-05-15T07:52:17;15.20;99.90
21678;DHT22;11000;50.360;7.582;2023-05-15T07:54:38;15.20;99.90
21678;DHT22;11000;50.360;7.582;2023-05-15T07:57:00;15.10;99.90
21678;DHT22;11000;50.360;7.582;2023-05-15T07:59:21;15.10;99.90
21678;DHT22;11000;50.360;7.582;2023-05-15T08:01:42;15.10;99.90
21678;DHT22;11000;50.360;7.582;2023-05-15T08:04:06;15.10;99.90
21678;DHT22;11000;50.360;7.582;2023-05-15T08:06:26;14.90;99.90
21678;DHT22;11000;50.360;7.582;2023-05-15T08:08:47;15.00;99.90
21678;DHT22;11000;50.360;7.582;2023-05-15T08:11:07;15.20;99.90
21678;DHT22;11000;50.360;7.582;2023-05-15T08:13:28;15.30;99.90
21678;DHT22;11000;50.360;7.582;2023-05-15T08:15:48;15.30;99.90
21678;DHT22;11000;50.360;7.582;2023-05-15T08:18:09;15.40;99.90
21678;DHT22;11000;50.360;7.582;2023-05-15T08:20:30;15.50;99.90
21678;DHT22;11000;50.360;7.582;2023-05-15T08:22:50;15.60;99.90
21678;DHT22;11000;50.360;7.582;2023-05-15T08:25:11;15.70;99.90
21678;DHT22;11000;50.360;7.582;2023-05-15T08:27:32;15.90;99.90
21678;DHT22;11000;50.360;7.582;2023-05-15T08:29:52;15.90;99.90
21678;DHT22;11000;50.360;7.582;2023-05-15T08:32:14;15.90;99.90
21678;DHT22;11000;50.360;7.582;2023-05-15T08:34:34;16.00;99.90
21678;DHT22;11000;50.360;7.582;2023-05-15T08:36:56;15.90;99.90
21678;DHT22;11000;50.360;7.582;2023-05-15T08:39:16;15.80;99.90
21678;DHT22;11000;50.360;7.582;2023-05-15T08:42:26;15.70;99.90
21678;DHT22;11000;50.360;7.582;2023-05-15T08:44:25;15.70;99.90
21678;DHT22;11000;50.360;7.582;2023-05-15T08:46:46;15.60;99.90
21678;DHT22;11000;50.360;7.582;2023-05-15T08:50:01;15.60;99.90
21678;DHT22;11000;50.360;7.582;2023-05-15T08:51:54;15.60;99.90
21678;DHT22;11000;50.360;7.582;2023-05-15T08:54:15;15.60;99.90
21678;DHT22;11000;50.360;7.582;2023-05-15T08:56:36;15.60;99.90
21678;DHT22;11000;50.360;7.582;2023-05-15T08:58:57;15.60;99.90
21678;DHT22;11000;50.360;7.582;2023-05-15T09:01:18;15.70;99.90
21678;DHT22;11000;50.360;7.582;2023-05-15T09:03:38;15.70;99.90
21678;DHT22;11000;50.360;7.582;2023-05-15T09:05:59;15.70;99.90
21678;DHT22;11000;50.360;7.582;2023-05-15T09:08:21;15.60;99.90
21678;DHT22;11000;50.360;7.582;2023-05-15T09:10:43;15.70;99.90
21678;DHT22;11000;50.360;7.582;2023-05-15T09:13:04;15.70;99.90
21678;DHT22;11000;50.360;7.582;2023-05-15T09:15:27;15.80;99.90
21678;DHT22;11000;50.360;7.582;2023-05-15T09:17:49;15.90;99.90
21678;DHT22;11000;50.360;7.582;2023-05-15T09:20:35;16.10;99.90
21678;DHT22;11000;50.360;7.582;2023-05-15T09:22:57;16.30;99.90
21678;DHT22;11000;50.360;7.582;2023-05-15T09:25:38;16.40;99.90
21678;DHT22;11000;50.360;7.582;2023-05-15T09:27:59;16.50;99.90
21678;DHT22;11000;50.360;7.582;2023-05-15T09:30:20;16.60;99.90
21678;DHT22;11000;50.360;7.582;2023-05-15T09:32:42;16.70;99.90
21678;DHT22;11000;50.360;7.582;2023-05-15T09:35:03;16.60;99.90
21678;DHT22;11000;50.360;7.582;2023-05-15T09:37:31;16.70;99.90
21678;DHT22;11000;50.360;7.582;2023-05-15T09:39:52;16.60;99.90
21678;DHT22;11000;50.360;7.582;2023-05-15T09:42:13;16.60;99.90
21678;DHT22;11000;50.360;7.582;2023-05-15T09:44:34;16.60;99.90
21678;DHT22;11000;50.360;7.582;2023-05-15T09:46:56;16.70;99.90
21678;DHT22;11000;50.360;7.582;2023-05-15T09:49:20;16.70;99.90
21678;DHT22;11000;50.360;7.582;2023-05-15T09:51:42;17.00;99.90
21678;DHT22;11000;50.360;7.582;2023-05-15T09:54:03;17.00;99.90
21678;DHT22;11000;50.360;7.582;2023-05-15T09:56:24;17.10;99.90
21678;DHT22;11000;50.360;7.582;2023-05-15T09:58:52;17.10;99.90
21678;DHT22;11000;50.360;7.582;2023-05-15T10:01:18;17.30;99.90
21678;DHT22;11000;50.360;7.582;2023-05-15T10:03:39;17.30;99.90
21678;DHT22;11000;50.360;7.582;2023-05-15T10:06:03;17.30;99.90
21678;DHT22;11000;50.360;7.582;2023-05-15T10:08:27;17.60;99.90
21678;DHT22;11000;50.360;7.582;2023-05-15T10:10:48;17.90;99.90
21678;DHT22;11000;50.360;7.582;2023-05-15T10:13:10;18.20;99.90
21678;DHT22;11000;50.360;7.582;2023-05-15T10:15:31;18.30;99.90
21678;DHT22;11000;50.360;7.582;2023-05-15T10:17:52;18.50;99.90
21678;DHT22;11000;50.360;7.582;2023-05-15T10:20:13;18.70;99.90
21678;DHT22;11000;50.360;7.582;2023-05-15T10:22:37;18.90;99.90
21678;DHT22;11000;50.360;7.582;2023-05-15T10:25:44;18.80;99.90
21678;DHT22;11000;50.360;7.582;2023-05-15T10:28:01;18.80;99.90
21678;DHT22;11000;50.360;7.582;2023-05-15T10:30:23;18.90;99.90
21678;DHT22;11000;50.360;7.582;2023-05-15T10:32:45;19.30;99.90
21678;DHT22;11000;50.360;7.582;2023-05-15T10:35:09;18.60;99.90
21678;DHT22;11000;50.360;7.582;2023-05-15T10:37:31;19.30;99.90
21678;DHT22;11000;50.360;7.582;2023-05-15T10:39:52;19.60;99.90
21678;DHT22;11000;50.360;7.582;2023-05-15T10:42:16;19.90;99.90
21678;DHT22;11000;50.360;7.582;2023-05-15T10:44:37;20.40;99.90
21678;DHT22;11000;50.360;7.582;2023-05-15T10:46:58;20.30;99.90
21678;DHT22;11000;50.360;7.582;2023-05-15T10:49:19;20.10;99.90
21678;DHT22;11000;50.360;7.582;2023-05-15T10:51:41;20.20;99.90
21678;DHT22;11000;50.360;7.582;2023-05-15T10:54:02;20.30;99.90
21678;DHT22;11000;50.360;7.582;2023-05-15T10:56:37;19.90;99.90
21678;DHT22;11000;50.360;7.582;2023-05-15T10:59:05;19.30;99.90
21678;DHT22;11000;50.360;7.582;2023-05-15T11:01:29;19.90;99.90
21678;DHT22;11000;50.360;7.582;2023-05-15T11:03:54;19.70;99.90
21678;DHT22;11000;50.360;7.582;2023-05-15T11:06:27;20.10;99.90
21678;DHT22;11000;50.360;7.582;2023-05-15T11:08:50;20.30;99.90
21678;DHT22;11000;50.360;7.582;2023-05-15T11:24:26;20.80;99.90
21678;DHT22;11000;50.360;7.582;2023-05-15T11:26:55;21.30;99.90
21678;DHT22;11000;50.360;7.582;2023-05-15T11:29:17;21.40;99.90
21678;DHT22;11000;50.360;7.582;2023-05-15T11:31:39;21.60;99.90
21678;DHT22;11000;50.360;7.582;2023-05-15T11:34:04;20.80;99.90
21678;DHT22;11000;50.360;7.582;2023-05-15T11:36:24;20.70;99.90
21678;DHT22;11000;50.360;7.582;2023-05-15T11:38:49;20.70;99.90
21678;DHT22;11000;50.360;7.582;2023-05-15T11:41:18;20.70;99.90
21678;DHT22;11000;50.360;7.582;2023-05-15T11:43:39;20.90;99.90
21678;DHT22;11000;50.360;7.582;2023-05-15T11:46:09;20.40;99.90
21678;DHT22;11000;50.360;7.582;2023-05-15T11:48:43;20.10;99.90
21678;DHT22;11000;50.360;7.582;2023-05-15T11:51:20;19.70;99.90
21678;DHT22;11000;50.360;7.582;2023-05-15T11:53:42;20.60;99.90
21678;DHT22;11000;50.360;7.582;2023-05-15T11:56:02;21.10;99.90
21678;DHT22;11000;50.360;7.582;2023-05-15T11:58:24;21.30;99.90
21678;DHT22;11000;50.360;7.582;2023-05-15T12:00:47;21.20;99.90
21678;DHT22;11000;50.360;7.582;2023-05-15T12:03:16;21.90;99.90
21678;DHT22;11000;50.360;7.582;2023-05-15T12:05:39;22.20;99.90
21678;DHT22;11000;50.360;7.582;2023-05-15T12:08:00;22.20;99.90
21678;DHT22;11000;50.360;7.582;2023-05-15T12:10:21;21.80;99.90
21678;DHT22;11000;50.360;7.582;2023-05-15T12:12:42;22.10;99.90
21678;DHT22;11000;50.360;7.582;2023-05-15T12:15:03;22.00;99.90
21678;DHT22;11000;50.360;7.582;2023-05-15T12:17:25;22.00;99.90
21678;DHT22;11000;50.360;7.582;2023-05-15T12:19:47;21.80;99.90
21678;DHT22;11000;50.360;7.582;2023-05-15T12:22:08;21.70;99.90
21678;DHT22;11000;50.360;7.582;2023-05-15T12:24:28;22.00;99.90
21678;DHT22;11000;50.360;7.582;2023-05-15T12:26:49;22.30;99.90
21678;DHT22;11000;50.360;7.582;2023-05-15T12:29:09;22.60;99.90
21678;DHT22;11000;50.360;7.582;2023-05-15T12:31:32;22.70;99.90
21678;DHT22;11000;50.360;7.582;2023-05-15T12:33:53;22.90;99.90
21678;DHT22;11000;50.360;7.582;2023-05-15T12:36:14;23.00;99.90
21678;DHT22;11000;50.360;7.582;2023-05-15T12:38:39;22.70;99.90
21678;DHT22;11000;50.360;7.582;2023-05-15T12:40:59;22.80;99.90
21678;DHT22;11000;50.360;7.582;2023-05-15T12:43:23;23.00;99.90
21678;DHT22;11000;50.360;7.582;2023-05-15T12:45:44;22.70;99.90
21678;DHT22;11000;50.360;7.582;2023-05-15T12:48:05;22.60;99.90
21678;DHT22;11000;50.360;7.582;2023-05-15T12:50:27;23.00;99.90
21678;DHT22;11000;50.360;7.582;2023-05-15T12:52:56;22.70;99.90
21678;DHT22;11000;50.360;7.582;2023-05-15T12:55:20;22.00;99.90
21678;DHT22;11000;50.360;7.582;2023-05-15T12:57:41;21.30;99.90
21678;DHT22;11000;50.360;7.582;2023-05-15T13:00:02;20.70;99.90
21678;DHT22;11000;50.360;7.582;2023-05-15T13:02:23;20.90;99.90
21678;DHT22;11000;50.360;7.582;2023-05-15T13:04:45;21.10;99.90
21678;DHT22;11000;50.360;7.582;2023-05-15T13:07:06;20.60;99.90
21678;DHT22;11000;50.360;7.582;2023-05-15T13:09:27;21.30;99.90
21678;DHT22;11000;50.360;7.582;2023-05-15T13:11:47;21.90;99.90
21678;DHT22;11000;50.360;7.582;2023-05-15T13:14:08;22.10;99.90
21678;DHT22;11000;50.360;7.582;2023-05-15T13:16:36;22.20;99.90
21678;DHT22;11000;50.360;7.582;2023-05-15T13:18:57;22.70;99.90
21678;DHT22;11000;50.360;7.582;2023-05-15T13:21:18;23.00;99.90
21678;DHT22;11000;50.360;7.582;2023-05-15T13:23:39;22.30;99.90
21678;DHT22;11000;50.360;7.582;2023-05-15T13:25:59;21.30;99.90
21678;DHT22;11000;50.360;7.582;2023-05-15T13:28:20;21.00;99.90
21678;DHT22;11000;50.360;7.582;2023-05-15T13:30:41;20.90;99.90
21678;DHT22;11000;50.360;7.582;2023-05-15T13:33:01;21.00;99.90
21678;DHT22;11000;50.360;7.582;2023-05-15T13:35:23;21.10;99.90
21678;DHT22;11000;50.360;7.582;2023-05-15T13:37:43;20.90;99.90
21678;DHT22;11000;50.360;7.582;2023-05-15T13:40:07;21.20;99.90
21678;DHT22;11000;50.360;7.582;2023-05-15T13:42:31;21.00;99.90
21678;DHT22;11000;50.360;7.582;2023-05-15T13:44:54;21.00;99.90
21678;DHT22;11000;50.360;7.582;2023-05-15T13:47:16;21.00;99.90
21678;DHT22;11000;50.360;7.582;2023-05-15T13:49:37;20.90;99.90
21678;DHT22;11000;50.360;7.582;2023-05-15T13:51:58;20.80;99.90
21678;DHT22;11000;50.360;7.582;2023-05-15T13:54:19;20.70;99.90
21678;DHT22;11000;50.360;7.582;2023-05-15T13:56:39;21.00;99.90
21678;DHT22;11000;50.360;7.582;2023-05-15T13:59:00;20.80;99.90
21678;DHT22;11000;50.360;7.582;2023-05-15T14:01:20;20.70;99.90
21678;DHT22;11000;50.360;7.582;2023-05-15T14:03:41;20.60;99.90
21678;DHT22;11000;50.360;7.582;2023-05-15T14:06:01;20.90;99.90
21678;DHT22;11000;50.360;7.582;2023-05-15T14:08:22;21.30;99.90
21678;DHT22;11000;50.360;7.582;2023-05-15T14:10:43;21.90;99.90
21678;DHT22;11000;50.360;7.582;2023-05-15T14:13:03;22.40;99.90
21678;DHT22;11000;50.360;7.582;2023-05-15T14:15:24;22.30;99.90
21678;DHT22;11000;50.360;7.582;2023-05-15T14:17:45;22.10;99.90
21678;DHT22;11000;50.360;7.582;2023-05-15T14:20:09;21.50;99.90
21678;DHT22;11000;50.360;7.582;2023-05-15T14:22:30;21.30;99.90
21678;DHT22;11000;50.360;7.582;2023-05-15T14:24:54;21.30;99.90
21678;DHT22;11000;50.360;7.582;2023-05-15T14:27:14;21.50;99.90
21678;DHT22;11000;50.360;7.582;2023-05-15T14:29:35;21.50;99.90
21678;DHT22;11000;50.360;7.582;2023-05-15T14:31:56;21.70;99.90
21678;DHT22;11000;50.360;7.582;2023-05-15T14:34:18;21.50;99.90
21678;DHT22;11000;50.360;7.582;2023-05-15T14:36:38;21.40;99.90
21678;DHT22;11000;50.360;7.582;2023-05-15T14:38:59;21.20;99.90
21678;DHT22;11000;50.360;7.582;2023-05-15T14:41:19;21.20;99.90
21678;DHT22;11000;50.360;7.582;2023-05-15T14:43:41;21.30;99.90
21678;DHT22;11000;50.360;7.582;2023-05-15T14:46:01;21.20;99.40
21678;DHT22;11000;50.360;7.582;2023-05-15T14:48:22;21.40;99.90
21678;DHT22;11000;50.360;7.582;2023-05-15T14:50:43;22.10;98.80
21678;DHT22;11000;50.360;7.582;2023-05-15T14:53:04;22.40;98.30
21678;DHT22;11000;50.360;7.582;2023-05-15T14:55:24;22.60;92.40
21678;DHT22;11000;50.360;7.582;2023-05-15T14:57:44;22.70;90.50
21678;DHT22;11000;50.360;7.582;2023-05-15T15:00:08;22.80;84.40
21678;DHT22;11000;50.360;7.582;2023-05-15T15:02:30;23.00;86.00
21678;DHT22;11000;50.360;7.582;2023-05-15T15:04:51;23.10;85.60
21678;DHT22;11000;50.360;7.582;2023-05-15T15:07:11;23.00;85.00
21678;DHT22;11000;50.360;7.582;2023-05-15T15:09:32;22.90;85.30
21678;DHT22;11000;50.360;7.582;2023-05-15T15:11:52;23.00;84.80
21678;DHT22;11000;50.360;7.582;2023-05-15T15:14:13;22.80;79.50
21678;DHT22;11000;50.360;7.582;2023-05-15T15:16:33;22.40;82.70
21678;DHT22;11000;50.360;7.582;2023-05-15T15:18:54;22.40;84.10
21678;DHT22;11000;50.360;7.582;2023-05-15T15:21:14;22.40;79.30